Time;durP1;ratioP1;P1;durP2;ratioP2;P2;SDS_P1;SDS_P2;PMS_P1;PMS_P2;Temp;Humidity;BMP_temperature;BMP_pressure;BME280_temperature;BME280_humidity;BME280_pressure;Samples;Min_cycle;Max_cycle;Signal;HPM_P1;HPM_P2
2021/06/10 00:07:26;;;;;;;10.57;9.50;;;18.30;78.00;;;18.02;63.53;95330.09;4984375;28;20227;-81
2021/06/10 00:10:14;;;;;;;11.02;9.98;;;18.30;77.90;;;18.10;63.58;95341.44;4956723;28;20620;-81
2021/06/10 00:12:42;;;;;;;10.15;9.15;;;18.30;78.20;;;18.13;63.38;95325.84;4911105;29;20203;-81
2021/06/10 00:15:14;;;;;;;10.43;9.38;;;18.30;78.10;;;18.18;62.77;95330.50;4894223;29;20235;-81
2021/06/10 00:20:27;;;;;;;10.88;9.77;;;18.30;78.10;;;18.26;63.25;95339.94;5150136;27;20616;-82
2021/06/10 00:22:55;;;;;;;10.75;9.65;;;18.30;78.20;;;18.26;62.69;95338.13;5067852;28;20210;-81
2021/06/10 00:25:24;;;;;;;10.93;9.82;;;18.40;78.30;;;18.26;63.31;95334.63;5084253;28;20217;-81
2021/06/10 00:27:50;;;;;;;10.65;9.52;;;18.40;78.40;;;18.29;63.37;95334.19;5077995;28;20207;-81
2021/06/10 00:30:19;;;;;;;10.20;9.20;;;18.40;78.40;;;18.28;62.80;95332.56;5050505;28;21824;-80
2021/06/10 00:32:48;;;;;;;10.77;9.77;;;18.40;78.40;;;18.29;62.84;95335.00;4975595;28;20238;-81
2021/06/10 00:35:17;;;;;;;11.13;10.02;;;18.40;78.40;;;18.28;63.25;95328.06;4858675;29;20238;-81
2021/06/10 00:37:46;;;;;;;11.25;10.18;;;18.40;78.50;;;18.27;63.54;95330.94;4689497;30;20324;-81
2021/06/10 00:40:26;;;;;;;10.70;9.68;;;18.40;78.70;;;18.28;63.32;95328.06;5150671;27;20394;-81
2021/06/10 00:42:54;;;;;;;10.13;9.18;;;18.40;78.60;;;18.30;63.00;95322.53;5073540;27;20212;-81
2021/06/10 00:45:22;;;;;;;11.80;9.00;;;18.40;78.60;;;18.31;63.13;95326.78;5079565;27;20242;-81
2021/06/10 00:47:50;;;;;;;11.55;10.35;;;18.50;78.70;;;18.31;63.31;95326.78;5108973;28;20250;-81
2021/06/10 00:50:24;;;;;;;11.60;10.50;;;18.40;78.70;;;18.32;63.21;95320.44;5048368;28;20455;-81
2021/06/10 00:52:52;;;;;;;10.80;9.73;;;18.50;79.00;;;18.29;64.31;95324.38;4989531;28;20542;-81
2021/06/10 00:55:19;;;;;;;11.35;10.07;;;18.40;78.90;;;18.27;64.53;95328.28;4954121;28;20676;-81
2021/06/10 00:57:46;;;;;;;11.55;10.45;;;18.40;79.10;;;18.28;64.57;95324.59;4790378;29;20232;-81
2021/06/10 01:02:05;;;;;;;12.15;10.15;;;18.50;79.30;;;18.22;64.54;95321.00;5150536;27;20627;-81
2021/06/10 01:04:32;;;;;;;11.80;10.48;;;18.40;80.00;;;18.18;64.87;95320.66;5121904;27;20231;-81
2021/06/10 01:07:41;;;;;;;11.60;10.43;;;18.40;79.20;;;18.12;65.27;95310.16;5118829;28;20223;-81
2021/06/10 01:10:39;;;;;;;11.88;10.63;;;18.40;79.50;;;18.08;64.86;95323.88;5010533;28;20248;-81
2021/06/10 01:13:18;;;;;;;12.75;11.10;;;18.40;79.40;;;18.02;65.34;95319.50;5012633;28;20213;-82
2021/06/10 01:15:49;;;;;;;12.07;10.82;;;18.30;79.40;;;18.00;64.88;95316.25;4983524;28;20227;-81
2021/06/10 01:18:18;;;;;;;11.38;10.27;;;18.30;79.60;;;17.97;65.20;95316.72;4847740;29;20777;-81
2021/06/10 01:21:47;;;;;;;12.48;11.18;;;18.30;79.40;;;17.90;65.36;95313.31;5150436;27;20632;-81
2021/06/10 01:24:47;;;;;;;11.85;10.65;;;18.30;79.60;;;17.86;64.80;95310.31;5070362;28;20312;-81
2021/06/10 01:27:38;;;;;;;11.38;10.27;;;18.20;79.50;;;17.82;65.06;95305.69;5049820;28;20604;-81
2021/06/10 01:30:21;;;;;;;11.38;10.10;;;18.20;79.60;;;17.83;64.67;95315.28;5000703;28;20280;-81
2021/06/10 01:33:18;;;;;;;12.73;11.52;;;18.10;79.50;;;17.76;64.75;95304.78;4850691;29;20620;-81
2021/06/10 01:35:52;;;;;;;12.15;10.95;;;18.10;79.60;;;17.78;64.97;95310.66;4782185;29;20251;-81
2021/06/10 01:38:21;;;;;;;14.07;10.30;;;18.10;79.80;;;17.76;65.00;95307.44;4740744;29;20240;-81
2021/06/10 01:40:48;;;;;;;13.40;11.20;;;18.00;79.60;;;17.73;65.18;95302.56;4545747;30;20252;-81
2021/06/10 01:43:35;;;;;;;12.82;11.52;;;18.00;79.80;;;17.73;65.33;95297.25;5144097;27;20849;-81
2021/06/10 01:46:02;;;;;;;12.55;11.30;;;18.00;79.80;;;17.72;64.71;95307.06;5084871;28;20303;-81
2021/06/10 01:48:34;;;;;;;12.55;11.07;;;17.90;79.80;;;17.71;65.20;95296.66;5069977;28;20276;-80
2021/06/10 01:51:04;;;;;;;13.23;11.00;;;18.00;80.20;;;17.71;64.93;95301.97;5051809;28;20289;-81
2021/06/10 01:53:31;;;;;;;12.38;11.15;;;17.90;80.20;;;17.71;65.10;95302.78;5033103;28;20223;-83
2021/06/10 01:56:00;;;;;;;12.27;10.95;;;17.90;80.20;;;17.73;65.39;95295.41;5054292;28;20211;-80
2021/06/10 01:58:28;;;;;;;14.52;12.05;;;17.90;80.20;;;17.71;65.41;95299.31;4951954;28;20226;-81
2021/06/10 02:00:55;;;;;;;13.38;12.00;;;17.90;80.20;;;17.72;65.35;95295.63;4835712;28;20213;-81
2021/06/10 02:03:37;;;;;;;12.30;11.10;;;17.90;80.20;;;17.75;65.36;95300.50;5142639;27;20326;-80
2021/06/10 02:06:06;;;;;;;13.38;12.02;;;17.90;80.20;;;17.72;65.02;95293.81;5086755;28;20231;-83
2021/06/10 02:08:33;;;;;;;13.75;12.35;;;17.90;80.20;;;17.74;65.22;95293.56;5054190;28;20285;-82
2021/06/10 02:11:00;;;;;;;12.13;10.93;;;17.90;80.20;;;17.76;64.92;95299.47;5081698;28;20604;-82
2021/06/10 02:13:29;;;;;;;13.07;11.70;;;17.90;80.20;;;17.76;65.00;95297.63;5019250;28;20228;-80
2021/06/10 02:16:05;;;;;;;12.43;11.25;;;17.90;80.20;;;17.76;64.97;95296.81;5005300;28;20207;-81
2021/06/10 02:18:37;;;;;;;12.60;11.10;;;17.90;80.20;;;17.77;64.79;95285.16;4845405;29;20840;-81
2021/06/10 02:21:10;;;;;;;13.05;11.32;;;17.90;80.20;;;17.76;64.74;95291.50;4686483;30;20231;-81
2021/06/10 02:23:49;;;;;;;12.52;11.05;;;17.90;80.20;;;17.76;64.79;95296.81;5140957;27;20327;-81
2021/06/10 02:26:17;;;;;;;12.75;11.27;;;17.90;80.20;;;17.74;64.61;95285.63;5103390;28;20572;-81
2021/06/10 02:28:44;;;;;;;14.38;11.60;;;18.00;80.30;;;17.73;64.90;95284.00;5067257;28;20229;-81
2021/06/10 02:31:11;;;;;;;12.70;10.52;;;17.90;80.20;;;17.72;64.76;95290.31;5008733;28;20239;-82
2021/06/10 02:33:40;;;;;;;17.73;11.63;;;17.90;80.20;;;17.69;64.71;95294.25;4969731;28;20221;-81
2021/06/10 02:36:10;;;;;;;12.85;11.50;;;17.90;80.20;;;17.65;64.30;95297.56;4907559;29;20213;-82
2021/06/10 02:38:40;;;;;;;12.40;11.13;;;17.90;80.20;;;17.62;64.47;95300.69;4761972;29;20606;-85
2021/06/10 02:41:08;;;;;;;12.25;11.05;;;17.80;80.20;;;17.58;64.79;95293.19;4778410;29;20646;-81
2021/06/10 02:45:16;;;;;;;12.43;11.13;;;17.80;80.10;;;17.48;64.19;95298.22;5149489;27;20644;-81
2021/06/10 02:47:44;;;;;;;13.85;11.88;;;17.80;79.70;;;17.42;64.61;95305.25;5091512;28;20204;-81
2021/06/10 02:50:15;;;;;;;13.38;12.05;;;17.70;79.80;;;17.34;64.49;95297.59;5092192;28;20205;-81
2021/06/10 02:52:46;;;;;;;12.95;11.75;;;17.70;80.00;;;17.28;64.56;95301.13;5076572;28;20309;-81
2021/06/10 02:55:15;;;;;;;13.50;12.10;;;17.60;80.00;;;17.27;64.56;95299.50;5031561;28;20645;-81
2021/06/10 02:57:55;;;;;;;13.18;11.88;;;17.60;80.00;;;17.22;64.43;95302.03;4965806;28;20210;-81
2021/06/10 03:00:27;;;;;;;13.18;11.77;;;17.50;79.90;;;17.18;64.40;95306.97;4885535;28;20219;-81
2021/06/10 03:03:13;;;;;;;13.80;12.30;;;17.50;79.90;;;17.16;64.43;95316.19;5147260;27;20902;-82
2021/06/10 03:05:43;;;;;;;12.15;10.95;;;17.50;80.00;;;17.10;64.70;95310.75;5081875;28;20228;-81
2021/06/10 03:08:17;;;;;;;13.70;12.30;;;17.40;79.90;;;17.07;64.79;95313.03;5066051;28;20638;-81
2021/06/10 03:10:45;;;;;;;13.65;11.30;;;17.30;79.80;;;17.03;64.58;95310.03;5057262;28;20301;-81
2021/06/10 03:13:19;;;;;;;11.95;10.82;;;17.30;79.80;;;17.00;64.42;95307.00;5062099;28;20657;-82
2021/06/10 03:15:49;;;;;;;12.98;11.68;;;17.20;79.70;;;16.96;64.42;95304.00;4979433;28;20619;-81
2021/06/10 03:18:17;;;;;;;14.05;12.65;;;17.20;79.70;;;16.94;64.67;95314.00;4887823;29;20697;-82
2021/06/10 03:20:46;;;;;;;13.88;12.40;;;17.20;79.70;;;16.93;64.91;95307.06;4821596;29;20216;-82
2021/06/10 03:23:29;;;;;;;13.55;12.10;;;17.20;79.80;;;16.91;64.90;95317.88;5144707;27;20327;-82
2021/06/10 03:26:00;;;;;;;13.40;11.80;;;17.20;79.70;;;16.89;64.34;95305.88;5063485;28;20562;-81
2021/06/10 03:28:29;;;;;;;12.48;11.18;;;17.20;79.70;;;16.91;64.82;95306.47;5060472;28;20232;-81
2021/06/10 03:30:56;;;;;;;12.80;11.50;;;17.10;79.90;;;16.91;64.79;95309.91;5065690;28;20230;-81
2021/06/10 03:33:24;;;;;;;12.90;11.60;;;17.10;79.70;;;16.91;64.41;95309.91;4968379;28;20325;-81
2021/06/10 03:35:55;;;;;;;12.13;10.70;;;17.10;79.90;;;16.92;64.65;95324.81;4836887;29;20211;-81
2021/06/10 03:38:24;;;;;;;19.73;12.43;;;17.10;79.70;;;16.90;64.67;95310.16;4703757;30;20254;-81
2021/06/10 03:40:53;;;;;;;12.45;11.20;;;17.10;80.70;;;16.87;64.85;95311.41;4616766;30;20286;-81
2021/06/10 03:43:33;;;;;;;13.32;12.02;;;17.10;79.80;;;16.92;64.61;95306.28;5130705;27;20680;-82
2021/06/10 03:46:00;;;;;;;13.55;12.13;;;17.10;79.90;;;16.90;64.63;95307.50;5072895;28;20929;-81
2021/06/10 03:48:29;;;;;;;12.30;11.10;;;17.10;79.90;;;16.94;64.43;95317.47;5023994;28;20228;-81
2021/06/10 03:50:56;;;;;;;11.60;10.50;;;17.10;80.80;;;16.96;64.60;95319.88;4994925;28;20195;-82
2021/06/10 03:53:25;;;;;;;13.30;10.93;;;17.10;80.80;;;16.98;64.87;95317.84;4995065;28;20310;-81
2021/06/10 03:55:52;;;;;;;11.70;10.60;;;17.20;80.50;;;17.01;64.76;95317.38;4945222;28;20690;-82
2021/06/10 03:58:21;;;;;;;12.73;11.50;;;17.10;80.20;;;17.04;64.64;95324.06;4892961;29;20642;-82
2021/06/10 04:00:48;;;;;;;13.82;11.75;;;17.10;80.30;;;17.07;64.64;95318.34;4762844;29;20213;-83
2021/06/10 04:05:30;;;;;;;12.40;11.02;;;17.10;80.40;;;17.12;64.48;95323.78;5148625;27;20554;-83
2021/06/10 04:07:59;;;;;;;12.35;11.18;;;17.20;80.30;;;17.17;64.71;95323.09;5096366;28;20201;-82
2021/06/10 04:10:26;;;;;;;12.95;11.55;;;17.20;80.50;;;17.20;64.97;95320.00;5070028;28;20190;-83
2021/06/10 04:12:55;;;;;;;12.65;11.45;;;17.30;80.60;;;17.26;64.68;95319.94;5060929;28;20217;-82
2021/06/10 04:15:22;;;;;;;13.07;11.77;;;17.30;80.70;;;17.29;64.88;95314.16;4989888;28;20212;-83
2021/06/10 04:17:51;;;;;;;14.45;12.98;;;17.30;80.80;;;17.36;64.76;95314.09;4916489;28;20211;-83
2021/06/10 04:20:21;;;;;;;14.48;13.07;;;17.30;80.80;;;17.43;65.37;95321.94;4921677;29;20578;-83
2021/06/10 04:22:48;;;;;;;15.65;14.05;;;17.40;81.10;;;17.49;65.09;95322.91;4901464;29;20273;-82
2021/06/10 04:25:22;;;;;;;15.75;13.80;;;17.50;81.10;;;17.54;65.30;95325.69;5136385;27;20387;-83
2021/06/10 04:27:49;;;;;;;15.88;14.07;;;17.50;81.10;;;17.58;65.35;95317.06;5107752;28;20204;-83
2021/06/10 04:30:22;;;;;;;15.32;13.85;;;17.50;81.20;;;17.60;65.39;95315.00;5067435;28;20209;-83
2021/06/10 04:32:49;;;;;;;16.25;14.57;;;17.60;81.30;;;17.67;65.91;95309.56;5107144;28;20218;-84
2021/06/10 04:35:16;;;;;;;15.30;13.35;;;17.70;81.40;;;17.72;65.43;95317.69;5033205;28;20243;-83
2021/06/10 04:37:48;;;;;;;13.88;12.57;;;17.70;81.30;;;17.78;65.58;95318.59;4955115;28;20616;-83
2021/06/10 04:40:16;;;;;;;18.00;13.75;;;17.80;81.30;;;17.83;65.78;95315.28;4870826;29;20355;-85
2021/06/10 04:45:34;;;;;;;13.07;11.68;;;17.80;81.30;;;17.95;65.23;95316.13;5150632;27;20642;-82
2021/06/10 04:48:01;;;;;;;13.32;12.05;;;17.90;81.20;;;17.97;65.57;95311.41;5107815;28;20291;-85
2021/06/10 04:50:28;;;;;;;15.15;13.57;;;17.90;81.20;;;18.04;65.78;95316.59;5075527;28;20312;-84
2021/06/10 04:52:56;;;;;;;14.43;12.50;;;18.00;81.20;;;18.09;65.67;95316.75;5030417;28;20210;-85
2021/06/10 04:55:24;;;;;;;13.70;12.30;;;18.00;81.10;;;18.15;65.36;95318.47;4990024;28;20232;-84
2021/06/10 04:57:50;;;;;;;12.35;11.15;;;18.10;81.00;;;18.17;65.00;95307.63;4938033;28;20230;-84
2021/06/10 05:00:18;;;;;;;11.27;10.20;;;18.10;81.00;;;18.26;64.79;95316.06;4816912;29;20302;-84
2021/06/10 05:02:45;;;;;;;12.15;10.95;;;18.20;80.80;;;18.30;64.80;95311.91;4665893;30;20218;-85
2021/06/10 05:05:19;;;;;;;11.13;10.02;;;18.20;80.80;;;18.37;64.49;95315.25;5130709;27;20307;-85
2021/06/10 05:07:46;;;;;;;11.32;10.23;;;18.30;80.90;;;18.40;64.91;95310.28;5075134;28;20204;-85
2021/06/10 05:10:15;;;;;;;10.52;9.43;;;18.30;80.70;;;18.47;64.67;95312.84;5058283;28;21213;-85
2021/06/10 05:12:42;;;;;;;11.10;9.32;;;18.40;80.60;;;18.55;64.00;95311.66;5036248;28;20277;-85
2021/06/10 05:15:12;;;;;;;10.10;9.10;;;18.40;80.60;;;18.62;64.43;95322.19;5002063;28;20695;-83
2021/06/10 05:17:40;;;;;;;9.77;8.88;;;18.50;80.60;;;18.64;64.13;95306.81;4924469;28;20219;-84
2021/06/10 05:20:09;;;;;;;10.18;9.18;;;18.60;80.70;;;18.76;63.95;95317.41;4899465;29;20239;-86
2021/06/10 05:22:36;;;;;;;9.43;8.52;;;18.60;80.70;;;18.83;64.27;95316.25;4783241;29;20219;-86
2021/06/10 05:25:15;;;;;;;9.48;8.52;;;18.70;80.80;;;18.92;63.74;95315.91;5148973;27;20310;-86
2021/06/10 05:27:42;;;;;;;9.60;8.63;;;18.70;80.80;;;19.01;64.01;95317.19;5086834;28;20206;-84
2021/06/10 05:30:09;;;;;;;9.35;8.43;;;18.80;80.80;;;19.10;63.50;95309.66;5123174;27;20227;-87
2021/06/10 05:32:38;;;;;;;8.70;7.68;;;18.90;80.70;;;19.19;63.67;95308.25;5085711;28;20247;-83
2021/06/10 05:35:06;;;;;;;8.55;7.75;;;18.90;81.10;;;19.29;63.28;95313.75;4983072;28;20226;-82
2021/06/10 05:37:32;;;;;;;7.90;7.20;;;19.00;80.20;;;19.39;63.25;95312.34;4931979;29;20203;-84
2021/06/10 05:40:00;;;;;;;8.25;7.55;;;19.10;80.00;;;19.47;62.74;95312.75;4808515;29;20231;-82
2021/06/10 05:45:07;;;;;;;7.95;7.15;;;19.20;79.80;;;19.70;62.29;95318.19;5130375;27;20648;-83
2021/06/10 05:47:34;;;;;;;7.53;6.82;;;19.40;79.60;;;19.81;62.30;95318.16;5063774;28;20578;-83
2021/06/10 05:50:02;;;;;;;6.88;6.15;;;19.40;79.40;;;19.92;61.57;95310.34;5047172;28;20239;-83
2021/06/10 05:52:29;;;;;;;6.47;5.82;;;19.50;79.30;;;20.03;62.02;95319.31;5038152;28;20202;-82
2021/06/10 05:55:06;;;;;;;6.85;6.15;;;19.60;79.00;;;20.15;61.87;95317.38;5022636;28;20688;-82
2021/06/10 05:57:39;;;;;;;6.80;6.20;;;19.70;79.00;;;20.25;61.65;95320.22;5000938;28;20306;-83
2021/06/10 06:00:10;;;;;;;6.97;5.60;;;19.80;78.70;;;20.37;61.19;95328.09;4961605;28;20258;-82
2021/06/10 06:03:47;;;;;;;6.57;5.95;;;19.90;78.50;;;20.51;61.00;95320.59;5141347;27;20988;-83
2021/06/10 06:06:39;;;;;;;7.13;6.47;;;20.10;78.50;;;20.62;61.10;95324.22;5059076;28;20683;-83
2021/06/10 06:09:18;;;;;;;;;;;;;;;;;;;;;
2021/06/10 06:11:47;;;;;;;7.63;5.90;;;20.30;77.90;;;20.77;60.35;95323.66;5058236;28;20660;-83
2021/06/10 06:14:16;;;;;;;7.22;6.50;;;20.40;77.70;;;20.91;60.48;95327.56;5047950;28;20242;-83
2021/06/10 06:16:44;;;;;;;5.95;5.45;;;20.50;77.80;;;21.02;59.65;95327.69;5026389;28;20699;-82
2021/06/10 06:19:12;;;;;;;5.82;5.32;;;20.60;77.30;;;21.11;59.18;95335.00;4925761;28;20312;-82
2021/06/10 06:22:05;;;;;;;6.18;5.57;;;20.60;77.00;;;21.22;59.20;95327.16;5148682;27;20638;-82
2021/06/10 06:24:33;;;;;;;7.85;5.07;;;20.80;76.80;;;21.28;58.81;95328.81;5088359;28;20227;-83
2021/06/10 06:27:09;;;;;;;5.13;4.40;;;20.80;76.50;;;21.39;58.02;95329.75;5030739;28;20204;-83
2021/06/10 06:29:36;;;;;;;5.00;4.60;;;20.90;75.80;;;21.44;57.72;95322.59;5002606;28;20243;-83
2021/06/10 06:32:04;;;;;;;5.20;4.70;;;21.00;75.40;;;21.49;57.22;95321.84;4887278;29;20207;-83
2021/06/10 06:34:42;;;;;;;5.07;4.68;;;21.10;75.20;;;21.57;57.15;95323.31;4903574;28;20723;-82
2021/06/10 06:37:11;;;;;;;5.30;4.80;;;21.10;75.10;;;21.63;57.10;95324.13;4857675;29;20214;-83
2021/06/10 06:39:52;;;;;;;4.38;4.03;;;21.20;74.90;;;21.68;56.83;95327.69;4716591;29;20247;-82
2021/06/10 06:42:32;;;;;;;4.30;3.90;;;21.30;74.70;;;21.75;56.74;95328.28;5148502;27;20555;-83
2021/06/10 06:45:00;;;;;;;4.10;3.80;;;21.40;74.10;;;21.82;55.81;95336.06;5100617;27;20314;-82
2021/06/10 06:47:32;;;;;;;4.25;3.85;;;21.40;73.70;;;21.88;55.52;95328.94;5088760;28;20211;-82
2021/06/10 06:49:59;;;;;;;4.10;3.75;;;21.40;73.80;;;22.00;55.76;95336.78;5052269;28;20233;-82
2021/06/10 06:52:28;;;;;;;4.07;3.78;;;21.50;73.80;;;22.07;55.33;95334.72;5056156;28;20302;-82
2021/06/10 06:54:55;;;;;;;3.88;3.58;;;21.60;73.40;;;22.14;55.57;95338.00;5032544;28;20225;-82
2021/06/10 06:57:21;;;;;;;4.50;4.10;;;21.60;73.30;;;22.22;55.31;95342.03;4918401;28;20308;-82
2021/06/10 06:59:51;;;;;;;4.53;4.13;;;21.70;73.20;;;22.29;54.91;95337.28;4837647;28;20243;-83
2021/06/10 07:02:25;;;;;;;4.43;3.95;;;21.80;73.00;;;22.38;54.92;95343.00;5137558;27;20314;-83
2021/06/10 07:04:54;;;;;;;5.53;3.70;;;21.90;72.90;;;22.47;54.63;95344.16;5035829;28;20277;-83
2021/06/10 07:07:21;;;;;;;4.55;4.15;;;22.00;72.80;;;22.55;54.71;95335.63;5070972;28;20211;-83
2021/06/10 07:09:47;;;;;;;4.32;3.50;;;22.00;72.60;;;22.65;53.91;95344.78;5065543;28;20228;-82
2021/06/10 07:12:14;;;;;;;4.32;3.92;;;22.10;72.40;;;22.74;53.63;95342.44;4999305;28;20224;-82
2021/06/10 07:14:50;;;;;;;4.50;4.07;;;22.20;72.10;;;22.83;53.46;95333.66;4972248;28;20289;-82
2021/06/10 07:17:16;;;;;;;4.03;3.70;;;22.30;71.90;;;22.93;53.39;95340.16;4824173;29;20230;-82
2021/06/10 07:19:44;;;;;;;3.60;3.30;;;22.40;71.90;;;23.14;53.00;95338.38;4767154;29;20245;-82
2021/06/10 07:22:22;;;;;;;3.58;3.28;;;22.50;71.70;;;23.33;53.16;95336.06;5150581;27;20379;-83
2021/06/10 07:24:49;;;;;;;4.00;3.70;;;22.60;71.80;;;23.48;52.77;95338.78;5094896;27;20224;-83
2021/06/10 07:27:19;;;;;;;4.35;3.97;;;22.70;71.70;;;23.67;52.13;95338.31;5092976;28;20248;-83
2021/06/10 07:29:54;;;;;;;4.00;3.40;;;22.90;70.70;;;23.83;52.14;95341.81;5106658;28;21441;-83
2021/06/10 07:32:21;;;;;;;3.00;2.70;;;23.00;71.30;;;23.99;51.37;95337.31;4970334;28;20205;-83
2021/06/10 07:35:01;;;;;;;2.50;2.30;;;23.20;70.50;;;24.13;51.08;95342.94;4926749;28;20226;-82
2021/06/10 07:37:28;;;;;;;3.22;2.92;;;23.30;70.30;;;24.24;51.34;95344.56;4753985;29;20231;-82
2021/06/10 07:39:55;;;;;;;2.38;2.22;;;23.50;69.90;;;24.38;49.87;95342.16;4529484;31;20241;-82
2021/06/10 07:42:28;;;;;;;2.55;2.22;;;23.60;69.10;;;24.48;49.59;95349.38;5141477;27;20360;-82
2021/06/10 07:44:58;;;;;;;3.35;2.50;;;23.70;68.50;;;24.57;49.13;95347.78;5096186;28;20315;-81
2021/06/10 07:47:35;;;;;;;2.60;2.40;;;23.80;67.60;;;24.62;48.77;95347.75;5081696;28;20506;-82
2021/06/10 07:50:04;;;;;;;2.58;2.38;;;23.90;67.50;;;24.73;49.05;95348.59;4999963;28;20239;-83
2021/06/10 07:52:30;;;;;;;3.05;2.55;;;24.00;68.00;;;24.80;48.88;95350.97;4872479;29;20361;-82
2021/06/10 07:54:57;;;;;;;2.60;2.40;;;24.10;67.80;;;24.88;48.02;95344.28;4755974;29;20302;-82
2021/06/10 07:57:23;;;;;;;4.07;2.30;;;24.20;67.10;;;24.95;47.82;95347.47;4676089;30;20227;-81
2021/06/10 07:59:50;;;;;;;2.60;2.30;;;24.30;66.80;;;25.05;48.04;95343.97;4479939;31;20259;-81
2021/06/10 08:04:20;;;;;;;;;;;;;;;;;;;;;
2021/06/10 08:06:47;;;;;;;2.80;2.47;;;24.50;67.10;;;25.25;47.37;95340.38;5070423;28;20207;-81
2021/06/10 08:09:14;;;;;;;2.70;2.50;;;24.50;67.10;;;25.39;47.21;95346.00;5046049;28;20233;-81
2021/06/10 08:11:43;;;;;;;2.75;2.45;;;24.60;67.00;;;25.49;46.61;95337.91;5016887;28;20217;-81
2021/06/10 08:14:11;;;;;;;2.40;2.20;;;24.70;66.30;;;25.62;46.60;95335.69;4999849;28;20232;-81
2021/06/10 08:16:38;;;;;;;2.63;2.42;;;24.80;66.20;;;25.72;46.35;95339.13;4832214;29;20321;-82
2021/06/10 08:19:05;;;;;;;2.90;2.70;;;24.90;66.10;;;25.87;46.54;95332.84;4692450;30;20709;-81
2021/06/10 08:21:32;;;;;;;2.63;2.30;;;25.00;66.10;;;26.01;45.99;95335.72;4412485;31;20257;-82
2021/06/10 08:24:25;;;;;;;2.60;2.40;;;25.20;65.80;;;26.10;45.55;95333.25;5127823;27;20322;-82
2021/06/10 08:26:52;;;;;;;2.80;2.60;;;25.30;65.60;;;26.16;45.44;95336.72;5093023;28;20705;-82
2021/06/10 08:29:19;;;;;;;2.88;2.67;;;25.40;65.10;;;26.17;43.41;95335.59;5029445;28;20362;-82
2021/06/10 08:31:46;;;;;;;3.30;2.78;;;25.50;64.30;;;26.17;43.74;95333.75;5044608;28;20644;-82
2021/06/10 08:34:15;;;;;;;3.03;2.58;;;25.60;64.00;;;26.21;43.88;95337.47;4933561;28;20324;-82
2021/06/10 08:36:42;;;;;;;3.22;2.60;;;25.60;63.20;;;26.27;44.09;95332.03;4865934;29;20215;-83
2021/06/10 08:39:09;;;;;;;2.92;2.60;;;25.70;63.80;;;26.35;44.90;95339.50;4777534;29;20239;-83
2021/06/10 08:42:01;;;;;;;4.70;3.17;;;25.80;64.60;;;26.40;45.01;95336.75;5150310;27;20588;-83
2021/06/10 08:44:28;;;;;;;3.80;3.05;;;25.80;64.70;;;26.41;43.84;95333.00;5088734;28;20568;-82
2021/06/10 08:46:55;;;;;;;3.70;2.83;;;25.80;64.30;;;26.34;43.62;95335.22;5088824;28;20289;-82
2021/06/10 08:49:23;;;;;;;3.40;3.10;;;25.90;63.50;;;26.21;43.71;95334.78;5074457;28;20230;-83
2021/06/10 08:51:50;;;;;;;3.00;2.70;;;25.90;63.60;;;26.10;44.38;95340.50;4984269;28;20238;-84
2021/06/10 08:54:18;;;;;;;5.43;2.80;;;25.80;63.90;;;26.02;44.78;95333.81;4888042;29;20234;-83
2021/06/10 08:56:53;;;;;;;2.78;2.58;;;25.80;63.90;;;25.98;44.70;95335.47;4821899;29;20221;-82
2021/06/10 08:59:20;;;;;;;3.08;2.70;;;25.70;63.80;;;25.95;44.35;95328.78;4658119;30;20246;-82
2021/06/10 09:03:32;;;;;;;2.58;2.38;;;25.70;63.40;;;25.99;44.23;95334.38;5135450;27;21165;-84
2021/06/10 09:06:07;;;;;;;2.88;2.30;;;25.70;63.40;;;26.09;43.91;95339.72;5090754;28;20210;-82
2021/06/10 09:08:40;;;;;;;2.80;2.60;;;25.60;63.00;;;26.19;44.14;95338.81;5039917;28;20313;-81
2021/06/10 09:11:15;;;;;;;3.05;2.75;;;25.70;63.50;;;26.31;43.54;95335.78;5015679;28;20212;-81
2021/06/10 09:13:56;;;;;;;3.08;2.78;;;25.70;63.20;;;26.37;43.10;95323.91;4904864;28;20244;-82
2021/06/10 09:16:31;;;;;;;4.07;2.92;;;25.80;63.00;;;26.49;42.86;95329.72;4793603;29;20226;-83
2021/06/10 09:19:17;;;;;;;2.80;2.60;;;25.80;62.70;;;26.62;43.22;95335.50;4561725;31;20327;-83
2021/06/10 09:23:56;;;;;;;2.90;2.70;;;25.90;62.80;;;26.83;43.23;95333.44;5139386;27;20571;-82
2021/06/10 09:26:38;;;;;;;3.40;3.10;;;26.10;63.60;;;26.99;43.52;95334.88;5104257;28;20678;-83
2021/06/10 09:29:05;;;;;;;3.50;3.20;;;26.20;63.60;;;27.12;43.11;95344.19;5069137;28;20223;-82
2021/06/10 09:31:35;;;;;;;4.13;3.20;;;26.30;63.30;;;27.19;41.99;95346.50;4991389;28;20659;-82
2021/06/10 09:34:16;;;;;;;3.90;3.30;;;26.40;62.50;;;27.26;42.35;95341.59;4933597;28;20266;-82
2021/06/10 09:36:47;;;;;;;3.85;3.17;;;26.50;62.40;;;27.36;41.79;95348.75;4850880;29;20219;-82
2021/06/10 09:39:18;;;;;;;3.20;3.00;;;26.50;61.80;;;27.42;41.58;95342.22;4654808;30;20242;-83
2021/06/10 09:43:17;;;;;;;3.20;2.90;;;26.60;62.10;;;27.47;42.14;95349.44;5137731;27;20574;-82
2021/06/10 09:45:56;;;;;;;5.25;3.42;;;26.70;62.50;;;27.43;42.10;95343.84;5031380;28;20311;-82
2021/06/10 09:49:08;;;;;;;3.65;3.35;;;26.80;62.20;;;27.39;42.02;95342.78;5011445;28;20234;-82
2021/06/10 09:51:53;;;;;;;3.33;2.97;;;26.90;62.20;;;27.33;41.42;95335.84;4983334;28;20659;-81
2021/06/10 09:54:41;;;;;;;3.25;2.97;;;26.90;61.80;;;27.21;40.89;95351.59;4862190;29;20561;-81
2021/06/10 09:57:08;;;;;;;3.05;2.75;;;26.90;61.20;;;27.14;41.73;95350.06;4799352;29;20277;-81
2021/06/10 10:00:13;;;;;;;3.00;2.80;;;26.80;61.60;;;27.14;41.64;95347.38;4644901;30;20277;-80
2021/06/10 10:05:25;;;;;;;3.40;3.10;;;26.80;61.00;;;27.28;40.93;95336.72;5134368;27;20567;-81
2021/06/10 10:07:53;;;;;;;3.38;3.08;;;26.80;60.40;;;27.40;40.91;95330.09;5090945;28;20246;-83
2021/06/10 10:10:23;;;;;;;3.25;3.05;;;26.80;61.80;;;27.53;40.59;95329.44;5033813;28;20202;-82
2021/06/10 10:12:58;;;;;;;3.50;3.20;;;26.90;61.10;;;27.70;40.24;95333.53;4990553;28;20245;-82
2021/06/10 10:15:25;;;;;;;3.40;3.10;;;26.90;60.40;;;27.71;39.49;95333.25;4934956;28;20305;-82
2021/06/10 10:17:52;;;;;;;3.30;3.00;;;27.00;60.40;;;27.70;40.04;95339.72;4820782;29;20216;-82
2021/06/10 10:20:20;;;;;;;2.97;2.78;;;27.10;60.10;;;27.69;39.61;95324.63;4690009;30;20228;-82
2021/06/10 10:22:59;;;;;;;3.10;2.90;;;27.10;60.90;;;27.63;39.90;95329.28;5139055;27;20558;-81
2021/06/10 10:25:26;;;;;;;2.85;2.60;;;27.10;60.10;;;27.58;40.08;95329.34;5079597;28;20221;-81
2021/06/10 10:27:53;;;;;;;3.22;2.90;;;27.10;60.00;;;27.59;40.01;95322.88;5091992;28;20321;-83
2021/06/10 10:30:21;;;;;;;3.05;2.80;;;27.10;60.10;;;27.63;40.15;95315.03;5036483;28;20207;-82
2021/06/10 10:32:48;;;;;;;2.97;2.78;;;27.10;59.50;;;27.68;38.25;95317.63;4951771;28;20290;-82
2021/06/10 10:35:21;;;;;;;3.05;2.85;;;27.10;58.50;;;27.66;39.01;95314.44;4766731;29;20282;-81
2021/06/10 10:37:50;;;;;;;2.90;2.70;;;27.20;58.20;;;27.68;39.04;95317.63;4650623;30;20227;-82
2021/06/10 10:40:29;;;;;;;2.70;2.50;;;27.20;59.50;;;27.77;39.14;95313.19;4463401;31;20231;-82
2021/06/10 10:43:34;;;;;;;3.13;2.83;;;27.20;60.30;;;27.83;38.80;95310.44;5137891;27;20711;-82
2021/06/10 10:46:18;;;;;;;3.22;2.72;;;27.20;58.10;;;27.91;39.58;95305.16;5102341;28;20205;-82
2021/06/10 10:48:48;;;;;;;3.08;2.83;;;27.30;59.10;;;28.10;38.88;95307.09;5081897;28;20226;-81
2021/06/10 10:51:25;;;;;;;2.60;2.40;;;27.40;59.00;;;28.27;39.07;95296.56;5000233;28;20284;-82
2021/06/10 10:54:12;;;;;;;2.85;2.53;;;27.50;58.60;;;28.45;38.86;95302.19;4889137;29;20244;-80
2021/06/10 10:59:41;;;;;;;3.10;2.80;;;27.70;57.50;;;28.67;37.88;95292.63;4566576;30;20288;-82
2021/06/10 11:04:55;;;;;;;2.80;2.50;;;27.90;58.00;;;28.94;37.38;95288.38;5132820;27;20581;-82
2021/06/10 11:07:40;;;;;;;2.88;2.67;;;28.10;58.40;;;29.06;37.26;95275.97;5084282;28;20230;-82
2021/06/10 11:10:07;;;;;;;2.60;2.40;;;28.20;57.40;;;29.14;37.62;95279.06;5100035;28;20244;-81
2021/06/10 11:13:11;;;;;;;2.88;2.67;;;28.30;57.40;;;29.15;36.78;95281.47;5060675;28;20218;-81